Punta Gialla — IWUC — position and weather

sailwx.info

Track history (hours):
 
Tides and Currents Weather Stations Pressure Air Temp Water Temp Dewpoint Dewpoint Depression Visibility Wind Speed Wind Dir Waves Ship Positions

Punta Gialla

Last reported at 2016-Dec-03 17:33 UTC. Time now 2016-Dec-04 18:25 UTC.
Position N 44°24' E 008°54'.

Length 52 m; draft 1.7 m.

Type: Tanker. MMSI: 247077500.

Date/timePositionNaut miles runAvg speedWind from/ knotsBaromVisibWave heightAir tempDewpointWater temp
2016-Dec-03 17:33N 44°24' E 008°54'0 0.4
2016-Dec-03 16:33N 44°25' E 008°55'0 0.0
2016-Dec-03 15:33N 44°25' E 008°55'0 0.5
2016-Dec-03 14:33N 44°24' E 008°54'0 0.0
2016-Dec-03 13:33N 44°24' E 008°54'0 0.0
2016-Dec-03 12:33N 44°24' E 008°54'0 0.0
2016-Dec-03 11:33N 44°24' E 008°54'0 0.3
2016-Dec-03 10:33N 44°24' E 008°55'0 0.0
2016-Dec-03 09:33N 44°24' E 008°55'0 0.0
2016-Dec-03 08:33N 44°24' E 008°55'0 0.3
2016-Dec-03 07:33N 44°24' E 008°54'0 0.0
2016-Dec-02 21:33N 44°24' E 008°54'4 3.9
2016-Dec-02 20:33N 44°23' E 008°49'2 1.8
2016-Dec-02 19:34N 44°25' E 008°50'0 0.0
2016-Dec-02 18:34N 44°25' E 008°50'0 0.0
2016-Dec-02 17:33N 44°25' E 008°50'0 0.0
2016-Dec-02 16:33N 44°25' E 008°50'0 0.0
2016-Dec-02 15:33N 44°25' E 008°50'1 1.5
2016-Dec-02 14:33N 44°24' E 008°50'3 3.1
2016-Dec-02 13:33N 44°24' E 008°54'0 0.0
2016-Dec-02 12:33N 44°24' E 008°54'0 0.0
2016-Dec-02 11:33N 44°24' E 008°54'0 0.0
2016-Dec-02 10:33N 44°24' E 008°54'0 0.0
2016-Dec-02 09:33N 44°24' E 008°54'0 0.0
2016-Dec-01 18:33N 44°24' E 008°54'0 0.3
2016-Dec-01 17:33N 44°24' E 008°54'0 0.0
2016-Dec-01 16:33N 44°24' E 008°54'1 0.9
2016-Dec-01 15:33N 44°24' E 008°55'0 0.1
2016-Dec-01 14:33N 44°24' E 008°55'0 0.0
2016-Dec-01 13:33N 44°24' E 008°55'0 0.0
2016-Dec-01 12:33N 44°24' E 008°55'0 0.3
2016-Dec-01 11:33N 44°24' E 008°55'0 0.0
2016-Dec-01 10:33N 44°24' E 008°55'0 0.0
2016-Dec-01 09:33N 44°24' E 008°55'0 0.0
2016-Dec-01 08:33N 44°24' E 008°55'1 0.7
2016-Dec-01 07:33N 44°24' E 008°54'0 0.0
2016-Nov-30 23:09N 44°24' E 008°54'0 0.0
2016-Nov-30 22:33N 44°24' E 008°54'0 0.5
2016-Nov-30 21:33N 44°25' E 008°55'0 0.0
2016-Nov-30 20:33N 44°25' E 008°55'0 0.0
2016-Nov-30 19:33N 44°25' E 008°55'1 0.6
2016-Nov-30 18:33N 44°24' E 008°55'0 0.2
2016-Nov-30 17:33N 44°24' E 008°54'0 0.0
2016-Nov-30 16:33N 44°24' E 008°54'1 1.0
2016-Nov-30 15:33N 44°24' E 008°56'0 0.0
2016-Nov-30 14:33N 44°24' E 008°56'1 1.1
2016-Nov-30 13:33N 44°24' E 008°54'0 0.0
2016-Nov-30 12:33N 44°24' E 008°54'0 0.0
2016-Nov-30 11:33N 44°24' E 008°54'0 0.0
2016-Nov-30 10:33N 44°24' E 008°54'0 0.0
2016-Nov-30 09:33N 44°24' E 008°54'0 0.0
2016-Nov-29 17:34N 44°24' E 008°54'1 1.0
2016-Nov-29 16:33N 44°24' E 008°53'0 0.0
2016-Nov-29 15:33N 44°24' E 008°53'0 0.0
2016-Nov-29 14:34N 44°24' E 008°53'1 1.0
2016-Nov-29 13:34N 44°24' E 008°54'0 0.0
2016-Nov-29 12:34N 44°24' E 008°54'0 0.0
2016-Nov-29 11:34N 44°24' E 008°54'0 0.0
2016-Nov-29 10:34N 44°24' E 008°54'0 0.0
2016-Nov-29 09:33N 44°24' E 008°54'0 0.0
2016-Nov-29 08:34N 44°24' E 008°54'0 0.0
2016-Nov-28 16:33N 44°24' E 008°54'0 0.5
2016-Nov-28 15:33N 44°24' E 008°55'0 0.0
2016-Nov-28 14:33N 44°24' E 008°55'0 0.0
2016-Nov-28 13:33N 44°24' E 008°55'0 0.5
2016-Nov-28 12:33N 44°24' E 008°54'0 0.0
2016-Nov-28 11:33N 44°24' E 008°54'0 0.0
2016-Nov-28 10:33N 44°24' E 008°54'0 0.0
2016-Nov-28 09:34N 44°24' E 008°54'0 0.0
2016-Nov-28 08:33N 44°24' E 008°54'0 0.0
2016-Nov-28 07:33N 44°24' E 008°54'0 0.0
2016-Nov-28 06:33N 44°24' E 008°54'0 0.0
2016-Nov-28 05:33N 44°24' E 008°54'0 0.0
2016-Nov-28 04:33N 44°24' E 008°54'0 0.0
2016-Nov-28 03:33N 44°24' E 008°54'0 0.0
2016-Nov-28 02:33N 44°24' E 008°54'0 0.0
2016-Nov-28 01:33N 44°24' E 008°54'0 0.0
2016-Nov-28 00:33N 44°24' E 008°54'0 0.0
2016-Nov-27 23:33N 44°24' E 008°54'0 0.0
2016-Nov-27 22:33N 44°24' E 008°54'0 0.0
2016-Nov-27 21:34N 44°24' E 008°54'0 0.0
2016-Nov-27 20:34N 44°24' E 008°54'0 0.0
2016-Nov-27 19:33N 44°24' E 008°54'0 0.0
2016-Nov-27 18:33N 44°24' E 008°54'0 0.0
2016-Nov-27 17:34N 44°24' E 008°54'0 0.0
2016-Nov-27 16:34N 44°24' E 008°54'0 0.0
2016-Nov-27 15:33N 44°24' E 008°54'0 0.0
2016-Nov-27 14:34N 44°24' E 008°54'0 0.0
2016-Nov-27 13:33N 44°24' E 008°54'0 0.0
2016-Nov-27 12:33N 44°24' E 008°54'0 0.0
2016-Nov-27 11:33N 44°24' E 008°54'0 0.4
2016-Nov-27 10:34N 44°25' E 008°55'0 0.0
2016-Nov-27 09:33N 44°25' E 008°55'0 0.0
2016-Nov-27 08:33N 44°25' E 008°55'0 0.5
2016-Nov-27 07:34N 44°24' E 008°54'0 0.0
2016-Nov-27 06:33N 44°24' E 008°54'0 0.0
2016-Nov-27 05:33N 44°24' E 008°54'0 0.0
2016-Nov-27 04:33N 44°24' E 008°54'0 0.0
2016-Nov-27 03:33N 44°24' E 008°54'0 0.0
2016-Nov-27 02:33N 44°24' E 008°54'0 0.0
2016-Nov-27 01:33N 44°24' E 008°54'0 0.0
2016-Nov-27 00:33N 44°24' E 008°54'0 0.0
2016-Nov-26 23:34N 44°24' E 008°54'0 0.0
2016-Nov-26 22:34N 44°24' E 008°54'0 0.0
2016-Nov-26 21:33N 44°24' E 008°54'0 0.0
2016-Nov-26 20:33N 44°24' E 008°54'0 0.0
2016-Nov-26 19:33N 44°24' E 008°54'0 0.0
2016-Nov-26 18:33N 44°24' E 008°54'0 0.0
2016-Nov-26 17:33N 44°24' E 008°54'0 0.0
2016-Nov-26 16:34N 44°24' E 008°54'0 0.2
2016-Nov-26 15:33N 44°24' E 008°55'1 0.8
2016-Nov-26 14:32N 44°25' E 008°55'0 0.0
2016-Nov-26 13:33N 44°25' E 008°55'0 0.0
2016-Nov-26 12:23N 44°25' E 008°55'1 0.8
2016-Nov-26 11:32N 44°24' E 008°55'0 0.0
2016-Nov-26 10:24N 44°24' E 008°55'0 0.0
2016-Nov-26 09:26N 44°24' E 008°55'0 0.0
2016-Nov-26 08:33N 44°24' E 008°55'0 0.0
2016-Nov-26 07:26N 44°24' E 008°55'0 0.0
2016-Nov-26 06:28N 44°24' E 008°55'0 0.0
2016-Nov-26 05:29N 44°24' E 008°55'0 0.0
2016-Nov-26 04:29N 44°24' E 008°55'0 0.0
2016-Nov-26 03:30N 44°24' E 008°55'0 0.0
2016-Nov-26 02:26N 44°24' E 008°55'0 0.0
2016-Nov-26 01:33N 44°24' E 008°55'0 0.0
2016-Nov-26 00:27N 44°24' E 008°55'0 0.0
2016-Nov-25 23:33N 44°24' E 008°55'0 0.0
2016-Nov-25 22:33N 44°24' E 008°55'1 1.2
2016-Nov-25 21:30N 44°24' E 008°53'0 0.0
2016-Nov-25 20:13N 44°24' E 008°53'0 0.5
2016-Nov-25 19:32N 44°24' E 008°54'0 0.0
2016-Nov-25 18:26N 44°24' E 008°54'1 1.3
2016-Nov-25 17:31N 44°24' E 008°55'0 0.1
2016-Nov-25 16:33N 44°24' E 008°55'1 1.1
2016-Nov-25 15:32N 44°24' E 008°54'0 0.0
2016-Nov-25 14:33N 44°24' E 008°54'0 0.0
2016-Nov-25 13:33N 44°24' E 008°54'0 0.2
2016-Nov-25 12:33N 44°24' E 008°54'0 0.4
2016-Nov-25 11:33N 44°24' E 008°54'0 0.0
2016-Nov-25 10:32N 44°24' E 008°54'0 0.0
2016-Nov-25 09:33N 44°24' E 008°54'0 0.0
2016-Nov-25 08:32N 44°24' E 008°54'0 0.0
2016-Nov-25 07:34N 44°24' E 008°54'0 0.0
2016-Nov-25 06:33N 44°24' E 008°54'0 0.0
2016-Nov-25 05:34N 44°24' E 008°54'0 0.0
2016-Nov-25 04:33N 44°24' E 008°54'0 0.0
2016-Nov-25 03:33N 44°24' E 008°54'0 0.0
2016-Nov-25 02:33N 44°24' E 008°54'0 0.0
2016-Nov-25 01:33N 44°24' E 008°54'0 0.0
2016-Nov-25 00:34N 44°24' E 008°54'0 0.0
2016-Nov-24 23:34N 44°24' E 008°54'0 0.0
2016-Nov-24 22:34N 44°24' E 008°54'0 0.0
2016-Nov-24 21:33N 44°24' E 008°54'0 0.0
2016-Nov-24 20:33N 44°24' E 008°54'0 0.0
2016-Nov-24 19:33N 44°24' E 008°54'0 0.0
2016-Nov-24 18:33N 44°24' E 008°54'0 0.0
2016-Nov-24 17:34N 44°24' E 008°54'0 0.0
2016-Nov-24 16:33N 44°24' E 008°54'0 0.0
2016-Nov-24 15:33N 44°24' E 008°54'0 0.0
2016-Nov-24 14:33N 44°24' E 008°54'0 0.0
2016-Nov-24 13:33N 44°24' E 008°54'0 0.0
2016-Nov-24 12:33N 44°24' E 008°54'0 0.0
2016-Nov-24 11:33N 44°24' E 008°54'0 0.0
2016-Nov-24 10:33N 44°24' E 008°54'0 0.4
2016-Nov-24 09:33N 44°24' E 008°55'0 0.0
2016-Nov-24 08:33N 44°24' E 008°55'0 0.5
2016-Nov-24 07:33N 44°24' E 008°54'0 0.0
2016-Nov-24 06:34N 44°24' E 008°54'0 0.0
2016-Nov-24 05:33N 44°24' E 008°54'0 0.0
2016-Nov-24 04:34N 44°24' E 008°54'0 0.0
2016-Nov-24 03:34N 44°24' E 008°54'0 0.0
2016-Nov-24 02:33N 44°24' E 008°54'0 0.0
2016-Nov-24 01:33N 44°24' E 008°54'0 0.0
2016-Nov-24 00:34N 44°24' E 008°54'0 0.0
2016-Nov-23 23:33N 44°24' E 008°54'0 0.0
2016-Nov-23 22:34N 44°24' E 008°54'0 0.0
2016-Nov-23 21:33N 44°24' E 008°54'0 0.0
2016-Nov-23 20:34N 44°24' E 008°54'0 0.0
2016-Nov-23 19:33N 44°24' E 008°54'0 0.0
2016-Nov-23 18:34N 44°24' E 008°54'  
Track history (hours):
 
Tides and Currents Weather Stations Pressure Air Temp Water Temp Dewpoint Dewpoint Depression Visibility Wind Speed Wind Dir Waves Ship Positions

Punta Gialla

Last reported at 2016-Dec-03 17:33 UTC. Time now 2016-Dec-04 18:25 UTC.
Position N 44°24' E 008°54'.

Length 52 m; draft 1.7 m.

Type: Tanker. MMSI: 247077500.

Date/timePositionNaut miles runAvg speedWind from/ knotsBaromVisibWave heightAir tempDewpointWater temp
2016-Dec-03 17:33N 44°24' E 008°54'0 0.4
2016-Dec-03 16:33N 44°25' E 008°55'0 0.0
2016-Dec-03 15:33N 44°25' E 008°55'0 0.5
2016-Dec-03 14:33N 44°24' E 008°54'0 0.0
2016-Dec-03 13:33N 44°24' E 008°54'0 0.0
2016-Dec-03 12:33N 44°24' E 008°54'0 0.0
2016-Dec-03 11:33N 44°24' E 008°54'0 0.3
2016-Dec-03 10:33N 44°24' E 008°55'0 0.0
2016-Dec-03 09:33N 44°24' E 008°55'0 0.0
2016-Dec-03 08:33N 44°24' E 008°55'0 0.3
2016-Dec-03 07:33N 44°24' E 008°54'0 0.0
2016-Dec-02 21:33N 44°24' E 008°54'4 3.9
2016-Dec-02 20:33N 44°23' E 008°49'2 1.8
2016-Dec-02 19:34N 44°25' E 008°50'0 0.0
2016-Dec-02 18:34N 44°25' E 008°50'0 0.0
2016-Dec-02 17:33N 44°25' E 008°50'0 0.0
2016-Dec-02 16:33N 44°25' E 008°50'0 0.0
2016-Dec-02 15:33N 44°25' E 008°50'1 1.5
2016-Dec-02 14:33N 44°24' E 008°50'3 3.1
2016-Dec-02 13:33N 44°24' E 008°54'0 0.0
2016-Dec-02 12:33N 44°24' E 008°54'0 0.0
2016-Dec-02 11:33N 44°24' E 008°54'0 0.0
2016-Dec-02 10:33N 44°24' E 008°54'0 0.0
2016-Dec-02 09:33N 44°24' E 008°54'0 0.0
2016-Dec-01 18:33N 44°24' E 008°54'0 0.3
2016-Dec-01 17:33N 44°24' E 008°54'0 0.0
2016-Dec-01 16:33N 44°24' E 008°54'1 0.9
2016-Dec-01 15:33N 44°24' E 008°55'0 0.1
2016-Dec-01 14:33N 44°24' E 008°55'0 0.0
2016-Dec-01 13:33N 44°24' E 008°55'0 0.0
2016-Dec-01 12:33N 44°24' E 008°55'0 0.3
2016-Dec-01 11:33N 44°24' E 008°55'0 0.0
2016-Dec-01 10:33N 44°24' E 008°55'0 0.0
2016-Dec-01 09:33N 44°24' E 008°55'0 0.0
2016-Dec-01 08:33N 44°24' E 008°55'1 0.7
2016-Dec-01 07:33N 44°24' E 008°54'0 0.0
2016-Nov-30 23:09N 44°24' E 008°54'0 0.0
2016-Nov-30 22:33N 44°24' E 008°54'0 0.5
2016-Nov-30 21:33N 44°25' E 008°55'0 0.0
2016-Nov-30 20:33N 44°25' E 008°55'0 0.0
2016-Nov-30 19:33N 44°25' E 008°55'1 0.6
2016-Nov-30 18:33N 44°24' E 008°55'0 0.2
2016-Nov-30 17:33N 44°24' E 008°54'0 0.0
2016-Nov-30 16:33N 44°24' E 008°54'1 1.0
2016-Nov-30 15:33N 44°24' E 008°56'0 0.0
2016-Nov-30 14:33N 44°24' E 008°56'1 1.1
2016-Nov-30 13:33N 44°24' E 008°54'0 0.0
2016-Nov-30 12:33N 44°24' E 008°54'0 0.0
2016-Nov-30 11:33N 44°24' E 008°54'0 0.0
2016-Nov-30 10:33N 44°24' E 008°54'0 0.0
2016-Nov-30 09:33N 44°24' E 008°54'0 0.0
2016-Nov-29 17:34N 44°24' E 008°54'1 1.0
2016-Nov-29 16:33N 44°24' E 008°53'0 0.0
2016-Nov-29 15:33N 44°24' E 008°53'0 0.0
2016-Nov-29 14:34N 44°24' E 008°53'1 1.0
2016-Nov-29 13:34N 44°24' E 008°54'0 0.0
2016-Nov-29 12:34N 44°24' E 008°54'0 0.0
2016-Nov-29 11:34N 44°24' E 008°54'0 0.0
2016-Nov-29 10:34N 44°24' E 008°54'0 0.0
2016-Nov-29 09:33N 44°24' E 008°54'0 0.0
2016-Nov-29 08:34N 44°24' E 008°54'0 0.0
2016-Nov-28 16:33N 44°24' E 008°54'0 0.5
2016-Nov-28 15:33N 44°24' E 008°55'0 0.0
2016-Nov-28 14:33N 44°24' E 008°55'0 0.0
2016-Nov-28 13:33N 44°24' E 008°55'0 0.5
2016-Nov-28 12:33N 44°24' E 008°54'0 0.0
2016-Nov-28 11:33N 44°24' E 008°54'0 0.0
2016-Nov-28 10:33N 44°24' E 008°54'0 0.0
2016-Nov-28 09:34N 44°24' E 008°54'0 0.0
2016-Nov-28 08:33N 44°24' E 008°54'0 0.0
2016-Nov-28 07:33N 44°24' E 008°54'0 0.0
2016-Nov-28 06:33N 44°24' E 008°54'0 0.0
2016-Nov-28 05:33N 44°24' E 008°54'0 0.0
2016-Nov-28 04:33N 44°24' E 008°54'0 0.0
2016-Nov-28 03:33N 44°24' E 008°54'0 0.0
2016-Nov-28 02:33N 44°24' E 008°54'0 0.0
2016-Nov-28 01:33N 44°24' E 008°54'0 0.0
2016-Nov-28 00:33N 44°24' E 008°54'0 0.0
2016-Nov-27 23:33N 44°24' E 008°54'0 0.0
2016-Nov-27 22:33N 44°24' E 008°54'0 0.0
2016-Nov-27 21:34N 44°24' E 008°54'0 0.0
2016-Nov-27 20:34N 44°24' E 008°54'0 0.0
2016-Nov-27 19:33N 44°24' E 008°54'0 0.0
2016-Nov-27 18:33N 44°24' E 008°54'0 0.0
2016-Nov-27 17:34N 44°24' E 008°54'0 0.0
2016-Nov-27 16:34N 44°24' E 008°54'0 0.0
2016-Nov-27 15:33N 44°24' E 008°54'0 0.0
2016-Nov-27 14:34N 44°24' E 008°54'0 0.0
2016-Nov-27 13:33N 44°24' E 008°54'0 0.0
2016-Nov-27 12:33N 44°24' E 008°54'0 0.0
2016-Nov-27 11:33N 44°24' E 008°54'0 0.4
2016-Nov-27 10:34N 44°25' E 008°55'0 0.0
2016-Nov-27 09:33N 44°25' E 008°55'0 0.0
2016-Nov-27 08:33N 44°25' E 008°55'0 0.5
2016-Nov-27 07:34N 44°24' E 008°54'0 0.0
2016-Nov-27 06:33N 44°24' E 008°54'0 0.0
2016-Nov-27 05:33N 44°24' E 008°54'0 0.0
2016-Nov-27 04:33N 44°24' E 008°54'0 0.0
2016-Nov-27 03:33N 44°24' E 008°54'0 0.0
2016-Nov-27 02:33N 44°24' E 008°54'0 0.0
2016-Nov-27 01:33N 44°24' E 008°54'0 0.0
2016-Nov-27 00:33N 44°24' E 008°54'0 0.0
2016-Nov-26 23:34N 44°24' E 008°54'0 0.0
2016-Nov-26 22:34N 44°24' E 008°54'0 0.0
2016-Nov-26 21:33N 44°24' E 008°54'0 0.0
2016-Nov-26 20:33N 44°24' E 008°54'0 0.0
2016-Nov-26 19:33N 44°24' E 008°54'0 0.0
2016-Nov-26 18:33N 44°24' E 008°54'0 0.0
2016-Nov-26 17:33N 44°24' E 008°54'0 0.0
2016-Nov-26 16:34N 44°24' E 008°54'0 0.2
2016-Nov-26 15:33N 44°24' E 008°55'1 0.8
2016-Nov-26 14:32N 44°25' E 008°55'0 0.0
2016-Nov-26 13:33N 44°25' E 008°55'0 0.0
2016-Nov-26 12:23N 44°25' E 008°55'1 0.8
2016-Nov-26 11:32N 44°24' E 008°55'0 0.0
2016-Nov-26 10:24N 44°24' E 008°55'0 0.0
2016-Nov-26 09:26N 44°24' E 008°55'0 0.0
2016-Nov-26 08:33N 44°24' E 008°55'0 0.0
2016-Nov-26 07:26N 44°24' E 008°55'0 0.0
2016-Nov-26 06:28N 44°24' E 008°55'0 0.0
2016-Nov-26 05:29N 44°24' E 008°55'0 0.0
2016-Nov-26 04:29N 44°24' E 008°55'0 0.0
2016-Nov-26 03:30N 44°24' E 008°55'0 0.0
2016-Nov-26 02:26N 44°24' E 008°55'0 0.0
2016-Nov-26 01:33N 44°24' E 008°55'0 0.0
2016-Nov-26 00:27N 44°24' E 008°55'0 0.0
2016-Nov-25 23:33N 44°24' E 008°55'0 0.0
2016-Nov-25 22:33N 44°24' E 008°55'1 1.2
2016-Nov-25 21:30N 44°24' E 008°53'0 0.0
2016-Nov-25 20:13N 44°24' E 008°53'0 0.5
2016-Nov-25 19:32N 44°24' E 008°54'0 0.0
2016-Nov-25 18:26N 44°24' E 008°54'1 1.3
2016-Nov-25 17:31N 44°24' E 008°55'0 0.1
2016-Nov-25 16:33N 44°24' E 008°55'1 1.1
2016-Nov-25 15:32N 44°24' E 008°54'0 0.0
2016-Nov-25 14:33N 44°24' E 008°54'0 0.0
2016-Nov-25 13:33N 44°24' E 008°54'0 0.2
2016-Nov-25 12:33N 44°24' E 008°54'0 0.4
2016-Nov-25 11:33N 44°24' E 008°54'0 0.0
2016-Nov-25 10:32N 44°24' E 008°54'0 0.0
2016-Nov-25 09:33N 44°24' E 008°54'0 0.0
2016-Nov-25 08:32N 44°24' E 008°54'0 0.0
2016-Nov-25 07:34N 44°24' E 008°54'0 0.0
2016-Nov-25 06:33N 44°24' E 008°54'0 0.0
2016-Nov-25 05:34N 44°24' E 008°54'0 0.0
2016-Nov-25 04:33N 44°24' E 008°54'0 0.0
2016-Nov-25 03:33N 44°24' E 008°54'0 0.0
2016-Nov-25 02:33N 44°24' E 008°54'0 0.0
2016-Nov-25 01:33N 44°24' E 008°54'0 0.0
2016-Nov-25 00:34N 44°24' E 008°54'0 0.0
2016-Nov-24 23:34N 44°24' E 008°54'0 0.0
2016-Nov-24 22:34N 44°24' E 008°54'0 0.0
2016-Nov-24 21:33N 44°24' E 008°54'0 0.0
2016-Nov-24 20:33N 44°24' E 008°54'0 0.0
2016-Nov-24 19:33N 44°24' E 008°54'0 0.0
2016-Nov-24 18:33N 44°24' E 008°54'0 0.0
2016-Nov-24 17:34N 44°24' E 008°54'0 0.0
2016-Nov-24 16:33N 44°24' E 008°54'0 0.0
2016-Nov-24 15:33N 44°24' E 008°54'0 0.0
2016-Nov-24 14:33N 44°24' E 008°54'0 0.0
2016-Nov-24 13:33N 44°24' E 008°54'0 0.0
2016-Nov-24 12:33N 44°24' E 008°54'0 0.0
2016-Nov-24 11:33N 44°24' E 008°54'0 0.0
2016-Nov-24 10:33N 44°24' E 008°54'0 0.4
2016-Nov-24 09:33N 44°24' E 008°55'0 0.0
2016-Nov-24 08:33N 44°24' E 008°55'0 0.5
2016-Nov-24 07:33N 44°24' E 008°54'0 0.0
2016-Nov-24 06:34N 44°24' E 008°54'0 0.0
2016-Nov-24 05:33N 44°24' E 008°54'0 0.0
2016-Nov-24 04:34N 44°24' E 008°54'0 0.0
2016-Nov-24 03:34N 44°24' E 008°54'0 0.0
2016-Nov-24 02:33N 44°24' E 008°54'0 0.0
2016-Nov-24 01:33N 44°24' E 008°54'0 0.0
2016-Nov-24 00:34N 44°24' E 008°54'0 0.0
2016-Nov-23 23:33N 44°24' E 008°54'0 0.0
2016-Nov-23 22:34N 44°24' E 008°54'0 0.0
2016-Nov-23 21:33N 44°24' E 008°54'0 0.0
2016-Nov-23 20:34N 44°24' E 008°54'0 0.0
2016-Nov-23 19:33N 44°24' E 008°54'0 0.0
2016-Nov-23 18:34N 44°24' E 008°54'  

Dump ship's entire track history